sensor_id;sensor_type;location;lat;lon;timestamp;temperature;humidity
22526;DHT22;11429;50.842;4.386;2024-01-27T00:00:07;6.90;99.90
22526;DHT22;11429;50.842;4.386;2024-01-27T00:02:33;6.90;99.90
22526;DHT22;11429;50.842;4.386;2024-01-27T00:04:59;6.60;99.90
22526;DHT22;11429;50.842;4.386;2024-01-27T00:07:24;6.60;99.90
22526;DHT22;11429;50.842;4.386;2024-01-27T00:09:52;6.70;99.90
22526;DHT22;11429;50.842;4.386;2024-01-27T00:12:18;6.40;99.90
22526;DHT22;11429;50.842;4.386;2024-01-27T00:14:43;6.10;99.90
22526;DHT22;11429;50.842;4.386;2024-01-27T00:17:09;5.90;99.90
22526;DHT22;11429;50.842;4.386;2024-01-27T00:19:35;5.90;99.90
22526;DHT22;11429;50.842;4.386;2024-01-27T00:22:01;6.20;99.90
22526;DHT22;11429;50.842;4.386;2024-01-27T00:24:27;6.40;99.90
22526;DHT22;11429;50.842;4.386;2024-01-27T00:26:53;6.50;99.90
22526;DHT22;11429;50.842;4.386;2024-01-27T00:29:19;6.40;99.90
22526;DHT22;11429;50.842;4.386;2024-01-27T00:31:45;6.70;99.90
22526;DHT22;11429;50.842;4.386;2024-01-27T00:34:11;6.70;99.90
22526;DHT22;11429;50.842;4.386;2024-01-27T00:36:36;6.70;99.90
22526;DHT22;11429;50.842;4.386;2024-01-27T00:39:03;6.00;99.90
22526;DHT22;11429;50.842;4.386;2024-01-27T00:41:29;5.80;99.90
22526;DHT22;11429;50.842;4.386;2024-01-27T00:43:55;5.50;99.90
22526;DHT22;11429;50.842;4.386;2024-01-27T00:46:20;5.60;99.90
22526;DHT22;11429;50.842;4.386;2024-01-27T00:48:46;5.70;99.90
22526;DHT22;11429;50.842;4.386;2024-01-27T00:51:13;5.70;99.90
22526;DHT22;11429;50.842;4.386;2024-01-27T00:53:39;5.60;99.90
22526;DHT22;11429;50.842;4.386;2024-01-27T00:56:05;5.60;99.90
22526;DHT22;11429;50.842;4.386;2024-01-27T00:58:30;5.70;99.90
22526;DHT22;11429;50.842;4.386;2024-01-27T01:00:57;6.00;99.90
22526;DHT22;11429;50.842;4.386;2024-01-27T01:03:23;6.20;99.90
22526;DHT22;11429;50.842;4.386;2024-01-27T01:05:50;6.00;99.90
22526;DHT22;11429;50.842;4.386;2024-01-27T01:08:15;5.80;99.90
22526;DHT22;11429;50.842;4.386;2024-01-27T01:10:41;5.90;99.90
22526;DHT22;11429;50.842;4.386;2024-01-27T01:13:07;6.00;99.90
22526;DHT22;11429;50.842;4.386;2024-01-27T01:15:32;5.70;99.90
22526;DHT22;11429;50.842;4.386;2024-01-27T01:17:58;5.80;99.90
22526;DHT22;11429;50.842;4.386;2024-01-27T01:20:24;5.90;99.90
22526;DHT22;11429;50.842;4.386;2024-01-27T01:22:52;5.70;99.90
22526;DHT22;11429;50.842;4.386;2024-01-27T01:25:17;5.80;99.90
22526;DHT22;11429;50.842;4.386;2024-01-27T01:27:47;5.80;99.90
22526;DHT22;11429;50.842;4.386;2024-01-27T01:30:17;5.70;99.90
22526;DHT22;11429;50.842;4.386;2024-01-27T01:32:43;5.50;99.90
22526;DHT22;11429;50.842;4.386;2024-01-27T01:35:12;5.60;99.90
22526;DHT22;11429;50.842;4.386;2024-01-27T01:37:39;5.70;99.90
22526;DHT22;11429;50.842;4.386;2024-01-27T01:40:05;5.60;99.90
22526;DHT22;11429;50.842;4.386;2024-01-27T01:42:32;5.40;99.90
22526;DHT22;11429;50.842;4.386;2024-01-27T01:44:58;5.40;99.90
22526;DHT22;11429;50.842;4.386;2024-01-27T01:47:24;5.50;99.90
22526;DHT22;11429;50.842;4.386;2024-01-27T01:49:50;5.30;99.90
22526;DHT22;11429;50.842;4.386;2024-01-27T01:52:18;5.50;99.90
22526;DHT22;11429;50.842;4.386;2024-01-27T01:54:49;5.50;99.90
22526;DHT22;11429;50.842;4.386;2024-01-27T01:57:16;5.40;99.90
22526;DHT22;11429;50.842;4.386;2024-01-27T01:59:42;5.70;99.90
22526;DHT22;11429;50.842;4.386;2024-01-27T02:02:08;5.70;99.90
22526;DHT22;11429;50.842;4.386;2024-01-27T02:04:44;5.60;99.90
22526;DHT22;11429;50.842;4.386;2024-01-27T02:07:11;5.20;99.90
22526;DHT22;11429;50.842;4.386;2024-01-27T02:09:37;5.00;99.90
22526;DHT22;11429;50.842;4.386;2024-01-27T02:12:04;5.00;99.90
22526;DHT22;11429;50.842;4.386;2024-01-27T02:14:30;4.90;99.90
22526;DHT22;11429;50.842;4.386;2024-01-27T02:16:56;4.90;99.90
22526;DHT22;11429;50.842;4.386;2024-01-27T02:19:22;5.00;99.90
22526;DHT22;11429;50.842;4.386;2024-01-27T02:21:51;5.00;99.90
22526;DHT22;11429;50.842;4.386;2024-01-27T02:24:16;4.90;99.90
22526;DHT22;11429;50.842;4.386;2024-01-27T02:26:42;4.90;99.90
22526;DHT22;11429;50.842;4.386;2024-01-27T02:29:08;5.00;99.90
22526;DHT22;11429;50.842;4.386;2024-01-27T02:31:33;5.10;99.90
22526;DHT22;11429;50.842;4.386;2024-01-27T02:33:59;5.00;99.90
22526;DHT22;11429;50.842;4.386;2024-01-27T02:36:25;4.90;99.90
22526;DHT22;11429;50.842;4.386;2024-01-27T02:38:51;5.00;99.90
22526;DHT22;11429;50.842;4.386;2024-01-27T02:41:16;4.90;99.90
22526;DHT22;11429;50.842;4.386;2024-01-27T02:43:42;5.20;99.90
22526;DHT22;11429;50.842;4.386;2024-01-27T02:46:11;5.40;99.90
22526;DHT22;11429;50.842;4.386;2024-01-27T02:48:40;5.40;99.90
22526;DHT22;11429;50.842;4.386;2024-01-27T02:51:06;5.60;99.90
22526;DHT22;11429;50.842;4.386;2024-01-27T02:53:32;5.40;99.90
22526;DHT22;11429;50.842;4.386;2024-01-27T02:55:58;5.10;99.90
22526;DHT22;11429;50.842;4.386;2024-01-27T02:58:23;5.00;99.90
22526;DHT22;11429;50.842;4.386;2024-01-27T03:00:49;5.40;99.90
22526;DHT22;11429;50.842;4.386;2024-01-27T03:03:15;5.60;99.90
22526;DHT22;11429;50.842;4.386;2024-01-27T03:05:41;5.50;99.90
22526;DHT22;11429;50.842;4.386;2024-01-27T03:08:06;5.30;99.90
22526;DHT22;11429;50.842;4.386;2024-01-27T03:10:32;5.30;99.90
22526;DHT22;11429;50.842;4.386;2024-01-27T03:12:58;5.30;99.90
22526;DHT22;11429;50.842;4.386;2024-01-27T03:15:24;5.10;99.90
22526;DHT22;11429;50.842;4.386;2024-01-27T03:17:50;5.00;99.90
22526;DHT22;11429;50.842;4.386;2024-01-27T03:20:15;4.80;99.90
22526;DHT22;11429;50.842;4.386;2024-01-27T03:22:41;4.80;99.90
22526;DHT22;11429;50.842;4.386;2024-01-27T03:25:10;4.70;99.90
22526;DHT22;11429;50.842;4.386;2024-01-27T03:27:39;4.60;99.90
22526;DHT22;11429;50.842;4.386;2024-01-27T03:30:05;4.60;99.90
22526;DHT22;11429;50.842;4.386;2024-01-27T03:32:31;4.60;99.90
22526;DHT22;11429;50.842;4.386;2024-01-27T03:35:01;4.70;99.90
22526;DHT22;11429;50.842;4.386;2024-01-27T03:37:27;4.50;99.90
22526;DHT22;11429;50.842;4.386;2024-01-27T03:39:53;4.50;99.90
22526;DHT22;11429;50.842;4.386;2024-01-27T03:42:19;4.40;99.90
22526;DHT22;11429;50.842;4.386;2024-01-27T03:44:44;4.40;99.90
22526;DHT22;11429;50.842;4.386;2024-01-27T03:47:10;4.40;99.90
22526;DHT22;11429;50.842;4.386;2024-01-27T03:49:36;4.30;99.90
22526;DHT22;11429;50.842;4.386;2024-01-27T03:52:02;4.40;99.90
22526;DHT22;11429;50.842;4.386;2024-01-27T03:54:28;4.60;99.90
22526;DHT22;11429;50.842;4.386;2024-01-27T03:56:54;4.70;99.90
22526;DHT22;11429;50.842;4.386;2024-01-27T03:59:20;4.60;99.90
22526;DHT22;11429;50.842;4.386;2024-01-27T04:01:46;4.70;99.90
22526;DHT22;11429;50.842;4.386;2024-01-27T04:04:12;4.70;99.90
22526;DHT22;11429;50.842;4.386;2024-01-27T04:06:39;4.70;99.90
22526;DHT22;11429;50.842;4.386;2024-01-27T04:09:05;4.60;99.90
22526;DHT22;11429;50.842;4.386;2024-01-27T04:11:37;4.60;99.90
22526;DHT22;11429;50.842;4.386;2024-01-27T04:14:03;4.50;99.90
22526;DHT22;11429;50.842;4.386;2024-01-27T04:16:30;4.40;99.90
22526;DHT22;11429;50.842;4.386;2024-01-27T04:18:56;4.30;99.90
22526;DHT22;11429;50.842;4.386;2024-01-27T04:21:21;4.30;99.90
22526;DHT22;11429;50.842;4.386;2024-01-27T04:23:47;4.20;99.90
22526;DHT22;11429;50.842;4.386;2024-01-27T04:26:13;4.10;99.90
22526;DHT22;11429;50.842;4.386;2024-01-27T04:28:38;4.00;99.90
22526;DHT22;11429;50.842;4.386;2024-01-27T04:31:04;4.00;99.90
22526;DHT22;11429;50.842;4.386;2024-01-27T04:33:30;4.00;99.90
22526;DHT22;11429;50.842;4.386;2024-01-27T04:35:56;3.90;99.90
22526;DHT22;11429;50.842;4.386;2024-01-27T04:38:22;4.00;99.90
22526;DHT22;11429;50.842;4.386;2024-01-27T04:40:48;4.40;99.90
22526;DHT22;11429;50.842;4.386;2024-01-27T04:43:15;4.70;99.90
22526;DHT22;11429;50.842;4.386;2024-01-27T04:45:42;4.60;99.90
22526;DHT22;11429;50.842;4.386;2024-01-27T04:48:07;4.50;99.90
22526;DHT22;11429;50.842;4.386;2024-01-27T04:50:34;4.40;99.90
22526;DHT22;11429;50.842;4.386;2024-01-27T04:52:59;4.20;99.90
22526;DHT22;11429;50.842;4.386;2024-01-27T04:55:25;4.10;99.90
22526;DHT22;11429;50.842;4.386;2024-01-27T04:57:51;4.30;99.90
22526;DHT22;11429;50.842;4.386;2024-01-27T05:00:16;4.40;99.90
22526;DHT22;11429;50.842;4.386;2024-01-27T05:02:43;4.30;99.90
22526;DHT22;11429;50.842;4.386;2024-01-27T05:05:09;4.10;99.90
22526;DHT22;11429;50.842;4.386;2024-01-27T05:07:34;4.10;99.90
22526;DHT22;11429;50.842;4.386;2024-01-27T05:10:00;4.10;99.90
22526;DHT22;11429;50.842;4.386;2024-01-27T05:12:26;4.20;99.90
22526;DHT22;11429;50.842;4.386;2024-01-27T05:14:52;4.20;99.90
22526;DHT22;11429;50.842;4.386;2024-01-27T05:17:17;4.20;99.90
22526;DHT22;11429;50.842;4.386;2024-01-27T05:19:43;4.30;99.90
22526;DHT22;11429;50.842;4.386;2024-01-27T05:22:09;4.30;99.90
22526;DHT22;11429;50.842;4.386;2024-01-27T05:24:35;4.30;99.90
22526;DHT22;11429;50.842;4.386;2024-01-27T05:27:00;4.10;99.90
22526;DHT22;11429;50.842;4.386;2024-01-27T05:29:27;4.20;99.90
22526;DHT22;11429;50.842;4.386;2024-01-27T05:31:53;4.20;99.90
22526;DHT22;11429;50.842;4.386;2024-01-27T05:34:19;4.20;99.90
22526;DHT22;11429;50.842;4.386;2024-01-27T05:36:49;4.20;99.90
22526;DHT22;11429;50.842;4.386;2024-01-27T05:39:14;4.20;99.90
22526;DHT22;11429;50.842;4.386;2024-01-27T05:41:40;4.20;99.90
22526;DHT22;11429;50.842;4.386;2024-01-27T05:44:06;4.20;99.90
22526;DHT22;11429;50.842;4.386;2024-01-27T05:46:31;4.30;99.90
22526;DHT22;11429;50.842;4.386;2024-01-27T05:48:57;4.80;99.90
22526;DHT22;11429;50.842;4.386;2024-01-27T05:51:28;4.60;99.90
22526;DHT22;11429;50.842;4.386;2024-01-27T05:53:54;4.40;99.90
22526;DHT22;11429;50.842;4.386;2024-01-27T05:56:20;4.30;99.90
22526;DHT22;11429;50.842;4.386;2024-01-27T05:58:46;4.20;99.90
22526;DHT22;11429;50.842;4.386;2024-01-27T06:01:12;4.20;99.90
22526;DHT22;11429;50.842;4.386;2024-01-27T06:03:37;4.30;99.90
22526;DHT22;11429;50.842;4.386;2024-01-27T06:06:03;4.60;99.90
22526;DHT22;11429;50.842;4.386;2024-01-27T06:08:29;4.50;99.90
22526;DHT22;11429;50.842;4.386;2024-01-27T06:10:55;4.40;99.90
22526;DHT22;11429;50.842;4.386;2024-01-27T06:13:21;4.70;99.90
22526;DHT22;11429;50.842;4.386;2024-01-27T06:15:46;4.50;99.90
22526;DHT22;11429;50.842;4.386;2024-01-27T06:18:12;4.40;99.90
22526;DHT22;11429;50.842;4.386;2024-01-27T06:20:37;4.40;99.90
22526;DHT22;11429;50.842;4.386;2024-01-27T06:23:05;4.40;99.90
22526;DHT22;11429;50.842;4.386;2024-01-27T06:25:32;4.30;99.90
22526;DHT22;11429;50.842;4.386;2024-01-27T06:27:57;4.20;99.90
22526;DHT22;11429;50.842;4.386;2024-01-27T06:30:23;4.20;99.90
22526;DHT22;11429;50.842;4.386;2024-01-27T06:32:49;4.20;99.90
22526;DHT22;11429;50.842;4.386;2024-01-27T06:35:15;4.20;99.90
22526;DHT22;11429;50.842;4.386;2024-01-27T06:37:41;4.40;99.90
22526;DHT22;11429;50.842;4.386;2024-01-27T06:40:07;4.40;99.90
22526;DHT22;11429;50.842;4.386;2024-01-27T06:42:34;4.30;99.90
22526;DHT22;11429;50.842;4.386;2024-01-27T06:45:02;4.30;99.90
22526;DHT22;11429;50.842;4.386;2024-01-27T06:47:28;4.10;99.90
22526;DHT22;11429;50.842;4.386;2024-01-27T06:49:54;4.10;99.90
22526;DHT22;11429;50.842;4.386;2024-01-27T06:52:20;3.90;99.90
22526;DHT22;11429;50.842;4.386;2024-01-27T06:54:45;4.00;99.90
22526;DHT22;11429;50.842;4.386;2024-01-27T06:57:21;3.90;99.90
22526;DHT22;11429;50.842;4.386;2024-01-27T06:59:48;3.80;99.90
22526;DHT22;11429;50.842;4.386;2024-01-27T07:02:27;3.70;99.90
22526;DHT22;11429;50.842;4.386;2024-01-27T07:04:57;3.80;99.90
22526;DHT22;11429;50.842;4.386;2024-01-27T07:07:25;3.80;99.90
22526;DHT22;11429;50.842;4.386;2024-01-27T07:09:52;3.70;99.90
22526;DHT22;11429;50.842;4.386;2024-01-27T07:12:18;3.80;99.90
22526;DHT22;11429;50.842;4.386;2024-01-27T07:14:43;3.90;99.90
22526;DHT22;11429;50.842;4.386;2024-01-27T07:17:09;3.90;99.90
22526;DHT22;11429;50.842;4.386;2024-01-27T07:19:35;3.90;99.90
22526;DHT22;11429;50.842;4.386;2024-01-27T07:22:00;4.00;99.90
22526;DHT22;11429;50.842;4.386;2024-01-27T07:24:26;4.00;99.90
22526;DHT22;11429;50.842;4.386;2024-01-27T07:26:52;4.10;99.90
22526;DHT22;11429;50.842;4.386;2024-01-27T07:29:18;4.00;99.90
22526;DHT22;11429;50.842;4.386;2024-01-27T07:31:43;3.90;99.90
22526;DHT22;11429;50.842;4.386;2024-01-27T07:34:09;4.00;99.90
22526;DHT22;11429;50.842;4.386;2024-01-27T07:36:35;4.00;99.90
22526;DHT22;11429;50.842;4.386;2024-01-27T07:39:00;4.20;99.90
22526;DHT22;11429;50.842;4.386;2024-01-27T07:41:26;4.20;99.90
22526;DHT22;11429;50.842;4.386;2024-01-27T07:43:54;4.20;99.90
22526;DHT22;11429;50.842;4.386;2024-01-27T07:46:19;4.10;99.90
22526;DHT22;11429;50.842;4.386;2024-01-27T07:48:48;4.20;99.90
22526;DHT22;11429;50.842;4.386;2024-01-27T07:51:15;4.30;99.90
22526;DHT22;11429;50.842;4.386;2024-01-27T07:53:40;4.30;99.90
22526;DHT22;11429;50.842;4.386;2024-01-27T07:56:07;4.20;99.90
22526;DHT22;11429;50.842;4.386;2024-01-27T07:58:33;4.20;99.90
22526;DHT22;11429;50.842;4.386;2024-01-27T08:00:59;4.20;99.90
22526;DHT22;11429;50.842;4.386;2024-01-27T08:03:25;4.10;99.90
22526;DHT22;11429;50.842;4.386;2024-01-27T08:05:51;4.00;99.90
22526;DHT22;11429;50.842;4.386;2024-01-27T08:08:17;4.10;99.90
22526;DHT22;11429;50.842;4.386;2024-01-27T08:10:43;4.20;99.90
22526;DHT22;11429;50.842;4.386;2024-01-27T08:13:09;4.20;99.90
22526;DHT22;11429;50.842;4.386;2024-01-27T08:15:35;4.10;99.90
22526;DHT22;11429;50.842;4.386;2024-01-27T08:18:00;4.20;99.90
22526;DHT22;11429;50.842;4.386;2024-01-27T08:20:26;4.20;99.90
22526;DHT22;11429;50.842;4.386;2024-01-27T08:22:52;4.20;99.90
22526;DHT22;11429;50.842;4.386;2024-01-27T08:25:18;4.30;99.90
22526;DHT22;11429;50.842;4.386;2024-01-27T08:27:43;4.40;99.90
22526;DHT22;11429;50.842;4.386;2024-01-27T08:30:10;4.50;99.90
22526;DHT22;11429;50.842;4.386;2024-01-27T08:32:36;4.50;99.90
22526;DHT22;11429;50.842;4.386;2024-01-27T08:35:02;4.60;99.90
22526;DHT22;11429;50.842;4.386;2024-01-27T08:37:27;4.70;99.90
22526;DHT22;11429;50.842;4.386;2024-01-27T08:39:53;4.60;99.90
22526;DHT22;11429;50.842;4.386;2024-01-27T08:42:19;4.70;99.90
22526;DHT22;11429;50.842;4.386;2024-01-27T08:44:44;4.70;99.90
22526;DHT22;11429;50.842;4.386;2024-01-27T08:47:10;4.80;99.90
22526;DHT22;11429;50.842;4.386;2024-01-27T08:49:36;4.80;99.90
22526;DHT22;11429;50.842;4.386;2024-01-27T08:52:02;4.80;99.90
22526;DHT22;11429;50.842;4.386;2024-01-27T08:54:28;4.80;99.90
22526;DHT22;11429;50.842;4.386;2024-01-27T08:56:53;4.90;99.90
22526;DHT22;11429;50.842;4.386;2024-01-27T08:59:19;5.00;99.90
22526;DHT22;11429;50.842;4.386;2024-01-27T09:01:45;5.00;99.90
22526;DHT22;11429;50.842;4.386;2024-01-27T09:04:10;5.10;99.90
22526;DHT22;11429;50.842;4.386;2024-01-27T09:06:36;5.10;99.90
22526;DHT22;11429;50.842;4.386;2024-01-27T09:09:02;5.10;99.90
22526;DHT22;11429;50.842;4.386;2024-01-27T09:11:28;5.10;99.90
22526;DHT22;11429;50.842;4.386;2024-01-27T09:13:56;5.20;99.90
22526;DHT22;11429;50.842;4.386;2024-01-27T09:16:21;5.40;99.90
22526;DHT22;11429;50.842;4.386;2024-01-27T09:18:47;5.40;99.90
22526;DHT22;11429;50.842;4.386;2024-01-27T09:21:15;5.50;99.90
22526;DHT22;11429;50.842;4.386;2024-01-27T09:23:46;5.60;99.90
22526;DHT22;11429;50.842;4.386;2024-01-27T09:26:13;5.70;99.90
22526;DHT22;11429;50.842;4.386;2024-01-27T09:28:39;5.80;99.90
22526;DHT22;11429;50.842;4.386;2024-01-27T09:31:10;5.90;99.90
22526;DHT22;11429;50.842;4.386;2024-01-27T09:33:36;6.00;99.90
22526;DHT22;11429;50.842;4.386;2024-01-27T09:36:02;6.30;99.90
22526;DHT22;11429;50.842;4.386;2024-01-27T09:38:28;6.30;99.90
22526;DHT22;11429;50.842;4.386;2024-01-27T09:40:53;6.40;99.90
22526;DHT22;11429;50.842;4.386;2024-01-27T09:43:19;6.50;99.90
22526;DHT22;11429;50.842;4.386;2024-01-27T09:45:46;6.70;99.90
22526;DHT22;11429;50.842;4.386;2024-01-27T09:48:13;6.70;99.90
22526;DHT22;11429;50.842;4.386;2024-01-27T09:50:42;7.00;99.90
22526;DHT22;11429;50.842;4.386;2024-01-27T09:53:07;7.50;99.90
22526;DHT22;11429;50.842;4.386;2024-01-27T09:55:34;8.30;99.90
22526;DHT22;11429;50.842;4.386;2024-01-27T09:58:00;8.80;99.90
22526;DHT22;11429;50.842;4.386;2024-01-27T10:00:27;9.00;99.90
22526;DHT22;11429;50.842;4.386;2024-01-27T10:02:54;9.30;99.90
22526;DHT22;11429;50.842;4.386;2024-01-27T10:05:21;10.50;99.90
22526;DHT22;11429;50.842;4.386;2024-01-27T10:07:48;11.00;99.90
22526;DHT22;11429;50.842;4.386;2024-01-27T10:10:14;11.70;99.90
22526;DHT22;11429;50.842;4.386;2024-01-27T10:12:42;12.60;99.90
22526;DHT22;11429;50.842;4.386;2024-01-27T10:15:22;12.20;99.90
22526;DHT22;11429;50.842;4.386;2024-01-27T10:17:48;12.20;99.90
22526;DHT22;11429;50.842;4.386;2024-01-27T10:20:14;11.90;99.90
22526;DHT22;11429;50.842;4.386;2024-01-27T10:22:44;11.60;99.90
22526;DHT22;11429;50.842;4.386;2024-01-27T10:25:11;12.00;99.90
22526;DHT22;11429;50.842;4.386;2024-01-27T10:27:38;12.00;99.90
22526;DHT22;11429;50.842;4.386;2024-01-27T10:30:04;12.10;99.90
22526;DHT22;11429;50.842;4.386;2024-01-27T10:32:33;11.70;99.90
22526;DHT22;11429;50.842;4.386;2024-01-27T10:35:05;11.40;99.90
22526;DHT22;11429;50.842;4.386;2024-01-27T10:37:34;10.50;99.90
22526;DHT22;11429;50.842;4.386;2024-01-27T10:40:07;10.00;99.90
22526;DHT22;11429;50.842;4.386;2024-01-27T10:42:38;9.70;99.90
22526;DHT22;11429;50.842;4.386;2024-01-27T10:45:05;9.50;99.90
22526;DHT22;11429;50.842;4.386;2024-01-27T10:47:32;9.40;99.90
22526;DHT22;11429;50.842;4.386;2024-01-27T10:49:59;9.30;99.90
22526;DHT22;11429;50.842;4.386;2024-01-27T10:52:29;9.20;99.90
22526;DHT22;11429;50.842;4.386;2024-01-27T10:55:00;10.10;99.90
22526;DHT22;11429;50.842;4.386;2024-01-27T10:57:26;10.60;99.90
22526;DHT22;11429;50.842;4.386;2024-01-27T10:59:53;10.80;99.90
22526;DHT22;11429;50.842;4.386;2024-01-27T11:02:19;10.60;99.90
22526;DHT22;11429;50.842;4.386;2024-01-27T11:04:48;10.60;99.90
22526;DHT22;11429;50.842;4.386;2024-01-27T11:07:16;10.00;99.90
22526;DHT22;11429;50.842;4.386;2024-01-27T11:09:42;10.10;99.90
22526;DHT22;11429;50.842;4.386;2024-01-27T11:12:09;10.00;99.90
22526;DHT22;11429;50.842;4.386;2024-01-27T11:14:35;10.20;99.90
22526;DHT22;11429;50.842;4.386;2024-01-27T11:17:01;10.30;99.90
22526;DHT22;11429;50.842;4.386;2024-01-27T11:19:27;10.30;99.90
22526;DHT22;11429;50.842;4.386;2024-01-27T11:22:03;10.10;99.90
22526;DHT22;11429;50.842;4.386;2024-01-27T11:24:29;10.70;99.90
22526;DHT22;11429;50.842;4.386;2024-01-27T11:27:05;11.10;99.90
22526;DHT22;11429;50.842;4.386;2024-01-27T11:29:32;12.40;99.90
22526;DHT22;11429;50.842;4.386;2024-01-27T11:32:03;13.30;99.90
22526;DHT22;11429;50.842;4.386;2024-01-27T11:34:43;13.30;99.90
22526;DHT22;11429;50.842;4.386;2024-01-27T11:37:14;13.50;99.90
22526;DHT22;11429;50.842;4.386;2024-01-27T11:39:40;14.20;99.90
22526;DHT22;11429;50.842;4.386;2024-01-27T11:42:17;13.00;99.90
22526;DHT22;11429;50.842;4.386;2024-01-27T11:44:43;13.10;99.90
22526;DHT22;11429;50.842;4.386;2024-01-27T11:47:18;12.80;99.90
22526;DHT22;11429;50.842;4.386;2024-01-27T11:49:54;12.10;99.90
22526;DHT22;11429;50.842;4.386;2024-01-27T11:52:21;11.40;99.90
22526;DHT22;11429;50.842;4.386;2024-01-27T11:54:57;11.20;99.90
22526;DHT22;11429;50.842;4.386;2024-01-27T11:57:23;12.10;99.90
22526;DHT22;11429;50.842;4.386;2024-01-27T11:59:50;12.90;99.90
22526;DHT22;11429;50.842;4.386;2024-01-27T12:02:16;12.70;99.90
22526;DHT22;11429;50.842;4.386;2024-01-27T12:04:42;12.60;99.90
22526;DHT22;11429;50.842;4.386;2024-01-27T12:07:08;12.50;99.90
22526;DHT22;11429;50.842;4.386;2024-01-27T12:09:36;12.60;99.90
22526;DHT22;11429;50.842;4.386;2024-01-27T12:12:02;12.00;99.90
22526;DHT22;11429;50.842;4.386;2024-01-27T12:14:44;12.50;99.90
22526;DHT22;11429;50.842;4.386;2024-01-27T12:17:10;13.40;99.90
22526;DHT22;11429;50.842;4.386;2024-01-27T12:19:37;12.60;99.90
22526;DHT22;11429;50.842;4.386;2024-01-27T12:22:04;12.50;99.90
22526;DHT22;11429;50.842;4.386;2024-01-27T12:24:30;13.20;99.90
22526;DHT22;11429;50.842;4.386;2024-01-27T12:26:59;12.70;99.90
22526;DHT22;11429;50.842;4.386;2024-01-27T12:29:25;13.10;99.90
22526;DHT22;11429;50.842;4.386;2024-01-27T12:31:51;13.40;99.90
22526;DHT22;11429;50.842;4.386;2024-01-27T12:34:18;13.70;99.90
22526;DHT22;11429;50.842;4.386;2024-01-27T12:36:44;13.50;99.90
22526;DHT22;11429;50.842;4.386;2024-01-27T12:39:10;12.50;99.90
22526;DHT22;11429;50.842;4.386;2024-01-27T12:41:36;13.30;99.90
22526;DHT22;11429;50.842;4.386;2024-01-27T12:44:02;13.50;99.90
22526;DHT22;11429;50.842;4.386;2024-01-27T12:46:28;13.90;99.90
22526;DHT22;11429;50.842;4.386;2024-01-27T12:48:54;13.70;99.90
22526;DHT22;11429;50.842;4.386;2024-01-27T12:51:20;13.90;99.90
22526;DHT22;11429;50.842;4.386;2024-01-27T12:53:46;13.40;99.90
22526;DHT22;11429;50.842;4.386;2024-01-27T12:56:13;13.10;99.90
22526;DHT22;11429;50.842;4.386;2024-01-27T12:58:40;12.70;99.90
22526;DHT22;11429;50.842;4.386;2024-01-27T13:01:07;12.10;99.90
22526;DHT22;11429;50.842;4.386;2024-01-27T13:03:34;11.70;99.90
22526;DHT22;11429;50.842;4.386;2024-01-27T13:06:00;11.30;99.90
22526;DHT22;11429;50.842;4.386;2024-01-27T13:08:26;11.50;99.90
22526;DHT22;11429;50.842;4.386;2024-01-27T13:10:52;11.20;99.90
22526;DHT22;11429;50.842;4.386;2024-01-27T13:13:18;11.10;99.90
22526;DHT22;11429;50.842;4.386;2024-01-27T13:15:44;10.80;99.90
22526;DHT22;11429;50.842;4.386;2024-01-27T13:18:10;10.80;99.90
22526;DHT22;11429;50.842;4.386;2024-01-27T13:20:39;10.70;99.90
22526;DHT22;11429;50.842;4.386;2024-01-27T13:23:08;10.60;99.90
22526;DHT22;11429;50.842;4.386;2024-01-27T13:25:33;10.60;99.90
22526;DHT22;11429;50.842;4.386;2024-01-27T13:27:59;10.60;99.90
22526;DHT22;11429;50.842;4.386;2024-01-27T13:30:24;10.70;99.90
22526;DHT22;11429;50.842;4.386;2024-01-27T13:32:50;10.70;99.90
22526;DHT22;11429;50.842;4.386;2024-01-27T13:35:16;10.60;99.90
22526;DHT22;11429;50.842;4.386;2024-01-27T13:37:42;10.40;99.90
22526;DHT22;11429;50.842;4.386;2024-01-27T13:40:08;10.30;99.90
22526;DHT22;11429;50.842;4.386;2024-01-27T13:42:36;10.30;99.90
22526;DHT22;11429;50.842;4.386;2024-01-27T13:45:03;10.20;99.90
22526;DHT22;11429;50.842;4.386;2024-01-27T13:47:29;10.00;99.90
22526;DHT22;11429;50.842;4.386;2024-01-27T13:49:55;10.00;99.90
22526;DHT22;11429;50.842;4.386;2024-01-27T13:52:21;10.00;99.90
22526;DHT22;11429;50.842;4.386;2024-01-27T13:54:47;9.90;99.90
22526;DHT22;11429;50.842;4.386;2024-01-27T13:57:15;9.90;99.90
22526;DHT22;11429;50.842;4.386;2024-01-27T13:59:40;9.80;99.90
22526;DHT22;11429;50.842;4.386;2024-01-27T14:02:06;9.60;99.90
22526;DHT22;11429;50.842;4.386;2024-01-27T14:04:32;9.60;99.90
22526;DHT22;11429;50.842;4.386;2024-01-27T14:06:59;9.70;99.90
22526;DHT22;11429;50.842;4.386;2024-01-27T14:09:28;9.60;99.90
22526;DHT22;11429;50.842;4.386;2024-01-27T14:11:54;9.70;99.90
22526;DHT22;11429;50.842;4.386;2024-01-27T14:14:20;9.60;99.90
22526;DHT22;11429;50.842;4.386;2024-01-27T14:16:46;9.50;99.90
22526;DHT22;11429;50.842;4.386;2024-01-27T14:19:12;9.60;99.90
22526;DHT22;11429;50.842;4.386;2024-01-27T14:21:38;9.70;99.90
22526;DHT22;11429;50.842;4.386;2024-01-27T14:24:06;9.60;99.90
22526;DHT22;11429;50.842;4.386;2024-01-27T14:26:32;9.40;99.90
22526;DHT22;11429;50.842;4.386;2024-01-27T14:28:58;9.30;99.90
22526;DHT22;11429;50.842;4.386;2024-01-27T14:31:24;9.40;99.90
22526;DHT22;11429;50.842;4.386;2024-01-27T14:33:49;9.50;99.90
22526;DHT22;11429;50.842;4.386;2024-01-27T14:36:15;9.50;99.90
22526;DHT22;11429;50.842;4.386;2024-01-27T14:38:41;9.40;99.90
22526;DHT22;11429;50.842;4.386;2024-01-27T14:41:07;9.40;99.90
22526;DHT22;11429;50.842;4.386;2024-01-27T14:43:33;9.30;99.90
22526;DHT22;11429;50.842;4.386;2024-01-27T14:45:59;9.20;99.90
22526;DHT22;11429;50.842;4.386;2024-01-27T14:48:25;9.10;99.90
22526;DHT22;11429;50.842;4.386;2024-01-27T14:50:51;9.00;99.90
22526;DHT22;11429;50.842;4.386;2024-01-27T14:53:22;8.90;99.90
22526;DHT22;11429;50.842;4.386;2024-01-27T14:55:48;8.80;99.90
22526;DHT22;11429;50.842;4.386;2024-01-27T14:58:14;8.90;99.90
22526;DHT22;11429;50.842;4.386;2024-01-27T15:00:40;8.80;99.90
22526;DHT22;11429;50.842;4.386;2024-01-27T15:03:06;8.90;99.90
22526;DHT22;11429;50.842;4.386;2024-01-27T15:05:32;9.00;99.90
22526;DHT22;11429;50.842;4.386;2024-01-27T15:08:02;9.00;99.90
22526;DHT22;11429;50.842;4.386;2024-01-27T15:10:28;8.90;99.90
22526;DHT22;11429;50.842;4.386;2024-01-27T15:12:53;8.90;99.90
22526;DHT22;11429;50.842;4.386;2024-01-27T15:15:19;8.90;99.90
22526;DHT22;11429;50.842;4.386;2024-01-27T15:17:45;8.80;99.90
22526;DHT22;11429;50.842;4.386;2024-01-27T15:20:11;8.80;99.90
22526;DHT22;11429;50.842;4.386;2024-01-27T15:22:40;8.60;99.90
22526;DHT22;11429;50.842;4.386;2024-01-27T15:25:07;8.70;99.90
22526;DHT22;11429;50.842;4.386;2024-01-27T15:27:33;8.60;99.90
22526;DHT22;11429;50.842;4.386;2024-01-27T15:29:59;8.70;99.90
22526;DHT22;11429;50.842;4.386;2024-01-27T15:32:28;8.60;99.90
22526;DHT22;11429;50.842;4.386;2024-01-27T15:34:53;8.60;99.90
22526;DHT22;11429;50.842;4.386;2024-01-27T15:37:19;8.50;99.90